메인 페이지
METAR-TAF:

METAR-TAF

공항 :

포르장티, 가봉

위도: 00-42S, 경도: 008-45E, 고도: 3m

현재 날씨관측

예보는 1 시간 13분 전, 09:00시(UTC)에 발표되었습니다.
8kt남남동풍과 남남서풍을 오가는
온도 25°C
습도 79%
기압 1016 hPa
시정: 8000m
고도 1000ft 상공 구름 보통

METAR: FOOG 130900Z 18008KT 150V210 8000 SCT010 25/21 Q1016

시각: 11:13 (10:13 UTC)

예보

예보는 5 시간 13분 전, 05:00시(UTC)에 발표되었습니다.
예보 대상 시간: 13일 06시부터 14일 06시까지 (UTC)
남남서8kt
시정: 8000m
고도 800ft 상공 구름 보통
고도 2600ft 상공 구름 많음

TAF: FOOG 130500Z 1306/1406 20008KT 8000 SCT008 BKN026

4,000개 이상의 공항 관측 자료 및 예보 (METAR 및 TAF 보고).

지도상에서 검색 가능한 기상관측소가 노란 점과 빨간 점으로 표시되어 있습니다.

기상관측소 명을 보려면 표시 위로 마우스를 이동하세요.

날씨 관측과 예보를 보려면 클릭하세요.

지도 변경 : 확대하려면 엑스 표시가 있는 녹색 버튼, 축소하려면 빼기 표시가 있는 녹색 버튼, 다음 페이지의 지도를 보려면 녹색 화살표를 클릭하세요.


METAR-TAF: